Startpagina
METAR-TAF:

METAR-TAF

Vliegvelden :

Teheran Mehrabad International Airport

Teheran, Iran

breedte: 35-41N, lengte: 051-21E, hoogte: 1204 m

Actueel weer

Dit bericht is 18 minuten geleden gemaakt, om 11:30 UTC
Wind 6 kt uit het westzuidwesten
Temperatuur 16°C
Vochtigheid 39%
Druk 1020 hPa
Zicht: 6000 m
Weinig wolken op 4000 ft

METAR: OIII 191130Z 24006KT 6000 FEW040 16/02 Q1020 A3013

Tijdstip: 15:18 (11:48 UTC)

Verwachting

Dit bericht is 48 minuten geleden gemaakt, om 11:00 UTC
Verwachting geldig van 19 om 12 UTC tot 20 om 18 UTC
Wind 8 kt uit het oostzuidoosten
Zicht: 7000 m
Tijdelijke
van 20 om 02 UTC tot 20 om 06 UTC
Zicht: 4000 m
Heiigheid
Tijdelijke
van 20 om 06 UTC tot 20 om 09 UTC
Wind 16 kt uit het zuidwesten
Tijdelijke
van 20 om 09 UTC tot 20 om 18 UTC
Verspreide wolken op 3000 ft
Gebroken wolken op 10000 ft

TAF: OIII 191100Z 1912/2018 12004MPS 7000 NSC TEMPO 2002/2006 4000 HZ NSC TEMPO 2006/2009 22008MPS TEMPO 2009/2018 SCT030 BKN100

Waarnemingen en weersverwachtingen van meer dan 4000 vliegvelden (METAR en TAF).

De beschikbare stations zijn de gele en rode punten op de kaart.

Ga met uw muis naar het station om de naam te zien.

Klik dan om waarnemingen en weersverwachtingen te zien.

kaart wijzigen: klik op de groene knoppen met een zwart kruis om in te zoomen, op de groene knop met een streepje om uit te zoomen of op de groene pijlen voor aangrenzende kaarten.


METAR-TAF: